Airport View

Enter AWOS ICAO identifier for current METAR.

ex. KFNL

PALU 191855Z AUTO 00000KT 4SM BR BKN080 10/07 A3006

19 Jun 2019 19:33

Phone: 907-552-9730

Other Area AWOS: PAPO - PAVL - PPIZ - PAWN

TAF PAOT 191740Z 1918/2018 03006KT P6SM SCT050 FM192100 27006KT P6SM SCT050 FM200800 33005KT P6SM FEW050 FEW100